sensor_id;sensor_type;location;lat;lon;timestamp;pressure;altitude;pressure_sealevel;temperature;humidity
70925;BME280;58577;52.410;13.242;2022-08-01T00:00:33;100790.25;;;20.74;63.82
70925;BME280;58577;52.410;13.242;2022-08-01T00:03:19;100790.03;;;20.75;63.33
70925;BME280;58577;52.410;13.242;2022-08-01T00:06:04;100788.75;;;20.78;63.18
70925;BME280;58577;52.410;13.242;2022-08-01T00:08:50;100792.34;;;20.72;63.40
70925;BME280;58577;52.410;13.242;2022-08-01T00:11:36;100784.38;;;20.70;64.63
70925;BME280;58577;52.410;13.242;2022-08-01T00:14:22;100790.44;;;20.59;65.02
70925;BME280;58577;52.410;13.242;2022-08-01T00:17:08;100798.22;;;20.55;64.39
70925;BME280;58577;52.410;13.242;2022-08-01T00:19:54;100794.44;;;20.43;65.19
70925;BME280;58577;52.410;13.242;2022-08-01T00:22:40;100792.78;;;20.42;64.80
70925;BME280;58577;52.410;13.242;2022-08-01T00:25:26;100802.84;;;20.35;66.26
70925;BME280;58577;52.410;13.242;2022-08-01T00:28:12;100808.06;;;20.43;65.89
70925;BME280;58577;52.410;13.242;2022-08-01T00:30:59;100801.56;;;20.37;67.19
70925;BME280;58577;52.410;13.242;2022-08-01T00:33:44;100800.97;;;20.29;67.36
70925;BME280;58577;52.410;13.242;2022-08-01T00:36:30;100798.84;;;20.24;68.02
70925;BME280;58577;52.410;13.242;2022-08-01T00:39:16;100804.13;;;20.19;68.34
70925;BME280;58577;52.410;13.242;2022-08-01T00:42:12;100805.34;;;20.16;67.85
70925;BME280;58577;52.410;13.242;2022-08-01T00:44:58;100801.19;;;20.20;67.88
70925;BME280;58577;52.410;13.242;2022-08-01T00:47:44;100802.22;;;20.06;69.35
70925;BME280;58577;52.410;13.242;2022-08-01T00:50:30;100800.53;;;20.05;68.83
70925;BME280;58577;52.410;13.242;2022-08-01T00:53:16;100796.13;;;19.97;69.63
70925;BME280;58577;52.410;13.242;2022-08-01T00:56:02;100805.97;;;19.92;70.31
70925;BME280;58577;52.410;13.242;2022-08-01T00:58:48;100805.75;;;19.87;70.22
70925;BME280;58577;52.410;13.242;2022-08-01T01:01:34;100800.53;;;19.92;70.33
70925;BME280;58577;52.410;13.242;2022-08-01T01:04:20;100804.72;;;19.88;70.60
70925;BME280;58577;52.410;13.242;2022-08-01T01:10:14;100798.63;;;19.92;70.69
70925;BME280;58577;52.410;13.242;2022-08-01T01:13:06;100800.28;;;19.93;70.70
70925;BME280;58577;52.410;13.242;2022-08-01T01:16:02;100793.00;;;19.94;70.21
70925;BME280;58577;52.410;13.242;2022-08-01T01:18:55;100796.75;;;19.86;71.26
70925;BME280;58577;52.410;13.242;2022-08-01T01:21:47;100793.81;;;19.88;71.04
70925;BME280;58577;52.410;13.242;2022-08-01T01:31:19;100793.38;;;19.91;70.85
70925;BME280;58577;52.410;13.242;2022-08-01T01:34:07;100785.44;;;19.96;71.49
70925;BME280;58577;52.410;13.242;2022-08-01T01:36:56;100784.38;;;19.90;70.87
70925;BME280;58577;52.410;13.242;2022-08-01T01:39:44;100782.69;;;19.89;71.47
70925;BME280;58577;52.410;13.242;2022-08-01T01:42:32;100789.38;;;19.73;71.83
70925;BME280;58577;52.410;13.242;2022-08-01T01:45:19;100776.53;;;19.60;73.07
70925;BME280;58577;52.410;13.242;2022-08-01T01:48:07;100778.88;;;19.57;72.58
70925;BME280;58577;52.410;13.242;2022-08-01T01:50:54;100770.44;;;19.45;73.31
70925;BME280;58577;52.410;13.242;2022-08-01T01:53:43;100769.78;;;19.36;74.06
70925;BME280;58577;52.410;13.242;2022-08-01T01:56:30;100778.34;;;19.27;74.43
70925;BME280;58577;52.410;13.242;2022-08-01T01:59:20;100785.03;;;19.24;74.44
70925;BME280;58577;52.410;13.242;2022-08-01T02:02:07;100776.88;;;19.24;73.71
70925;BME280;58577;52.410;13.242;2022-08-01T02:04:55;100781.88;;;19.20;74.79
70925;BME280;58577;52.410;13.242;2022-08-01T02:07:41;100774.50;;;19.08;76.00
70925;BME280;58577;52.410;13.242;2022-08-01T02:10:29;100777.22;;;19.08;75.66
70925;BME280;58577;52.410;13.242;2022-08-01T02:13:16;100780.13;;;19.06;75.75
70925;BME280;58577;52.410;13.242;2022-08-01T02:16:03;100782.38;;;18.96;76.56
70925;BME280;58577;52.410;13.242;2022-08-01T02:18:50;100786.34;;;18.93;76.51
70925;BME280;58577;52.410;13.242;2022-08-01T02:21:46;100784.84;;;18.84;77.17
70925;BME280;58577;52.410;13.242;2022-08-01T02:24:48;100787.88;;;18.74;77.70
70925;BME280;58577;52.410;13.242;2022-08-01T02:27:53;100781.31;;;18.62;78.54
70925;BME280;58577;52.410;13.242;2022-08-01T02:30:46;100777.03;;;18.46;79.98
70925;BME280;58577;52.410;13.242;2022-08-01T02:33:41;100773.28;;;18.47;79.90
70925;BME280;58577;52.410;13.242;2022-08-01T02:36:30;100770.13;;;18.43;81.02
70925;BME280;58577;52.410;13.242;2022-08-01T02:39:20;100765.88;;;18.34;81.10
70925;BME280;58577;52.410;13.242;2022-08-01T02:42:08;100780.91;;;18.37;81.05
70925;BME280;58577;52.410;13.242;2022-08-01T02:44:57;100781.19;;;18.42;80.57
70925;BME280;58577;52.410;13.242;2022-08-01T02:47:44;100775.25;;;18.32;81.77
70925;BME280;58577;52.410;13.242;2022-08-01T02:50:32;100772.25;;;18.20;82.30
70925;BME280;58577;52.410;13.242;2022-08-01T02:53:20;100772.25;;;18.20;82.34
70925;BME280;58577;52.410;13.242;2022-08-01T02:56:08;100769.59;;;18.05;83.15
70925;BME280;58577;52.410;13.242;2022-08-01T02:58:56;100775.50;;;18.08;82.74
70925;BME280;58577;52.410;13.242;2022-08-01T03:01:43;100773.47;;;18.17;81.73
70925;BME280;58577;52.410;13.242;2022-08-01T03:04:33;100781.81;;;18.16;82.09
70925;BME280;58577;52.410;13.242;2022-08-01T03:07:20;100776.81;;;18.19;82.03
70925;BME280;58577;52.410;13.242;2022-08-01T03:10:08;100778.88;;;18.17;82.52
70925;BME280;58577;52.410;13.242;2022-08-01T03:12:57;100778.06;;;18.17;82.51
70925;BME280;58577;52.410;13.242;2022-08-01T03:15:45;100775.59;;;18.22;82.39
70925;BME280;58577;52.410;13.242;2022-08-01T03:18:32;100774.69;;;18.15;82.71
70925;BME280;58577;52.410;13.242;2022-08-01T03:21:21;100785.75;;;18.13;82.69
70925;BME280;58577;52.410;13.242;2022-08-01T03:24:10;100773.00;;;18.14;82.79
70925;BME280;58577;52.410;13.242;2022-08-01T03:26:57;100787.25;;;18.16;83.01
70925;BME280;58577;52.410;13.242;2022-08-01T03:29:44;100784.84;;;18.27;81.98
70925;BME280;58577;52.410;13.242;2022-08-01T03:32:31;100788.31;;;18.43;81.76
70925;BME280;58577;52.410;13.242;2022-08-01T03:35:17;100789.66;;;18.32;82.29
70925;BME280;58577;52.410;13.242;2022-08-01T03:38:04;100791.16;;;18.35;82.30
70925;BME280;58577;52.410;13.242;2022-08-01T03:40:56;100792.50;;;18.45;81.72
70925;BME280;58577;52.410;13.242;2022-08-01T03:43:47;100789.63;;;18.54;81.29
70925;BME280;58577;52.410;13.242;2022-08-01T03:46:42;100785.53;;;18.64;80.99
70925;BME280;58577;52.410;13.242;2022-08-01T03:49:30;100794.13;;;18.68;81.15
70925;BME280;58577;52.410;13.242;2022-08-01T03:52:17;100801.69;;;18.79;81.18
70925;BME280;58577;52.410;13.242;2022-08-01T03:55:05;100796.34;;;18.86;80.71
70925;BME280;58577;52.410;13.242;2022-08-01T03:57:55;100790.97;;;18.99;81.13
70925;BME280;58577;52.410;13.242;2022-08-01T04:00:42;100800.81;;;19.00;80.63
70925;BME280;58577;52.410;13.242;2022-08-01T04:03:29;100793.31;;;19.09;80.37
70925;BME280;58577;52.410;13.242;2022-08-01T04:06:15;100801.72;;;19.14;80.29
70925;BME280;58577;52.410;13.242;2022-08-01T04:09:01;100802.38;;;19.16;80.08
70925;BME280;58577;52.410;13.242;2022-08-01T04:11:47;100801.75;;;19.21;80.25
70925;BME280;58577;52.410;13.242;2022-08-01T04:14:33;100806.09;;;19.15;80.09
70925;BME280;58577;52.410;13.242;2022-08-01T04:17:19;100810.09;;;19.13;80.21
70925;BME280;58577;52.410;13.242;2022-08-01T04:20:05;100804.66;;;19.19;80.37
70925;BME280;58577;52.410;13.242;2022-08-01T04:22:51;100817.88;;;19.22;80.36
70925;BME280;58577;52.410;13.242;2022-08-01T04:25:37;100812.22;;;19.24;80.70
70925;BME280;58577;52.410;13.242;2022-08-01T04:28:25;100813.50;;;19.28;80.96
70925;BME280;58577;52.410;13.242;2022-08-01T04:31:12;100813.06;;;19.24;81.12
70925;BME280;58577;52.410;13.242;2022-08-01T04:34:02;100818.69;;;19.23;81.34
70925;BME280;58577;52.410;13.242;2022-08-01T04:36:50;100816.38;;;19.20;81.39
70925;BME280;58577;52.410;13.242;2022-08-01T04:39:37;100820.16;;;19.25;81.33
70925;BME280;58577;52.410;13.242;2022-08-01T04:42:24;100822.25;;;19.23;81.46
70925;BME280;58577;52.410;13.242;2022-08-01T04:45:11;100824.53;;;19.20;82.34
70925;BME280;58577;52.410;13.242;2022-08-01T04:47:58;100825.97;;;19.16;82.88
70925;BME280;58577;52.410;13.242;2022-08-01T04:50:45;100831.03;;;19.19;82.68
70925;BME280;58577;52.410;13.242;2022-08-01T04:53:31;100834.38;;;19.14;82.78
70925;BME280;58577;52.410;13.242;2022-08-01T04:56:19;100832.69;;;19.20;83.10
70925;BME280;58577;52.410;13.242;2022-08-01T04:59:06;100837.31;;;19.19;83.29
70925;BME280;58577;52.410;13.242;2022-08-01T05:02:18;100828.56;;;19.24;82.96
70925;BME280;58577;52.410;13.242;2022-08-01T05:05:04;100832.75;;;19.27;83.17
70925;BME280;58577;52.410;13.242;2022-08-01T05:07:53;100826.69;;;19.31;82.90
70925;BME280;58577;52.410;13.242;2022-08-01T05:10:39;100825.28;;;19.42;82.82
70925;BME280;58577;52.410;13.242;2022-08-01T05:13:25;100835.78;;;19.52;82.85
70925;BME280;58577;52.410;13.242;2022-08-01T05:16:11;100838.50;;;19.58;82.25
70925;BME280;58577;52.410;13.242;2022-08-01T05:18:57;100839.38;;;19.65;82.56
70925;BME280;58577;52.410;13.242;2022-08-01T05:21:42;100844.38;;;19.62;82.22
70925;BME280;58577;52.410;13.242;2022-08-01T05:24:28;100831.41;;;19.64;82.26
70925;BME280;58577;52.410;13.242;2022-08-01T05:27:14;100832.28;;;19.64;82.18
70925;BME280;58577;52.410;13.242;2022-08-01T05:30:00;100831.50;;;19.84;81.50
70925;BME280;58577;52.410;13.242;2022-08-01T05:32:46;100833.22;;;19.92;81.07
70925;BME280;58577;52.410;13.242;2022-08-01T05:35:32;100829.44;;;20.06;80.47
70925;BME280;58577;52.410;13.242;2022-08-01T05:38:17;100836.75;;;19.99;81.11
70925;BME280;58577;52.410;13.242;2022-08-01T05:41:03;100844.25;;;19.83;81.27
70925;BME280;58577;52.410;13.242;2022-08-01T05:43:49;100842.59;;;19.82;81.58
70925;BME280;58577;52.410;13.242;2022-08-01T05:46:35;100835.06;;;19.84;82.78
70925;BME280;58577;52.410;13.242;2022-08-01T05:49:21;100838.84;;;19.90;82.25
70925;BME280;58577;52.410;13.242;2022-08-01T05:52:07;100846.38;;;19.95;82.11
70925;BME280;58577;52.410;13.242;2022-08-01T05:54:53;100850.19;;;20.07;81.36
70925;BME280;58577;52.410;13.242;2022-08-01T05:57:39;100846.41;;;20.08;81.53
70925;BME280;58577;52.410;13.242;2022-08-01T06:00:24;100848.09;;;20.16;79.87
70925;BME280;58577;52.410;13.242;2022-08-01T06:03:10;100851.66;;;20.16;80.10
70925;BME280;58577;52.410;13.242;2022-08-01T06:05:57;100845.19;;;20.17;80.36
70925;BME280;58577;52.410;13.242;2022-08-01T06:08:43;100853.38;;;20.31;80.25
70925;BME280;58577;52.410;13.242;2022-08-01T06:11:29;100855.03;;;20.25;80.26
70925;BME280;58577;52.410;13.242;2022-08-01T06:14:15;100846.84;;;20.05;80.02
70925;BME280;58577;52.410;13.242;2022-08-01T06:17:00;100847.44;;;20.00;80.59
70925;BME280;58577;52.410;13.242;2022-08-01T06:19:46;100852.66;;;19.89;81.37
70925;BME280;58577;52.410;13.242;2022-08-01T06:22:32;100851.59;;;19.76;84.38
70925;BME280;58577;52.410;13.242;2022-08-01T06:25:18;100861.34;;;19.64;85.60
70925;BME280;58577;52.410;13.242;2022-08-01T06:28:04;100867.59;;;19.58;87.28
70925;BME280;58577;52.410;13.242;2022-08-01T06:30:50;100866.72;;;19.51;87.67
70925;BME280;58577;52.410;13.242;2022-08-01T06:33:36;100869.00;;;19.40;88.99
70925;BME280;58577;52.410;13.242;2022-08-01T06:36:22;100876.97;;;19.49;88.88
70925;BME280;58577;52.410;13.242;2022-08-01T06:39:08;100876.41;;;19.60;88.51
70925;BME280;58577;52.410;13.242;2022-08-01T06:41:54;100870.66;;;19.76;88.75
70925;BME280;58577;52.410;13.242;2022-08-01T06:44:40;100874.63;;;19.80;87.68
70925;BME280;58577;52.410;13.242;2022-08-01T06:47:25;100876.09;;;19.76;87.47
70925;BME280;58577;52.410;13.242;2022-08-01T06:50:11;100876.22;;;19.68;87.07
70925;BME280;58577;52.410;13.242;2022-08-01T06:52:59;100874.16;;;19.70;87.12
70925;BME280;58577;52.410;13.242;2022-08-01T06:55:45;100869.94;;;19.61;86.12
70925;BME280;58577;52.410;13.242;2022-08-01T06:58:31;100873.00;;;19.44;86.99
70925;BME280;58577;52.410;13.242;2022-08-01T07:01:17;100875.56;;;19.59;87.00
70925;BME280;58577;52.410;13.242;2022-08-01T07:04:03;100870.84;;;19.75;86.96
70925;BME280;58577;52.410;13.242;2022-08-01T07:06:49;100876.59;;;20.20;85.61
70925;BME280;58577;52.410;13.242;2022-08-01T07:09:35;100879.75;;;20.43;84.12
70925;BME280;58577;52.410;13.242;2022-08-01T07:12:21;100880.81;;;20.42;83.29
70925;BME280;58577;52.410;13.242;2022-08-01T07:15:08;100879.56;;;20.38;82.87
70925;BME280;58577;52.410;13.242;2022-08-01T07:17:55;100875.75;;;20.26;83.37
70925;BME280;58577;52.410;13.242;2022-08-01T07:20:42;100876.38;;;20.08;85.32
70925;BME280;58577;52.410;13.242;2022-08-01T07:23:28;100881.22;;;20.13;85.35
70925;BME280;58577;52.410;13.242;2022-08-01T07:26:14;100876.38;;;20.08;83.03
70925;BME280;58577;52.410;13.242;2022-08-01T07:29:00;100892.03;;;19.93;83.51
70925;BME280;58577;52.410;13.242;2022-08-01T07:31:46;100883.44;;;19.89;84.48
70925;BME280;58577;52.410;13.242;2022-08-01T07:34:32;100880.19;;;20.20;84.21
70925;BME280;58577;52.410;13.242;2022-08-01T07:37:17;100889.63;;;20.91;81.84
70925;BME280;58577;52.410;13.242;2022-08-01T07:40:04;100886.69;;;20.99;79.83
70925;BME280;58577;52.410;13.242;2022-08-01T07:42:50;100892.38;;;20.78;80.21
70925;BME280;58577;52.410;13.242;2022-08-01T07:45:36;100890.69;;;20.70;80.17
70925;BME280;58577;52.410;13.242;2022-08-01T07:48:22;100894.06;;;20.86;80.33
70925;BME280;58577;52.410;13.242;2022-08-01T07:51:09;100890.69;;;20.84;81.32
70925;BME280;58577;52.410;13.242;2022-08-01T07:53:55;100901.38;;;20.58;80.34
70925;BME280;58577;52.410;13.242;2022-08-01T07:56:41;100908.69;;;20.51;80.31
70925;BME280;58577;52.410;13.242;2022-08-01T07:59:27;100914.34;;;20.23;80.18
70925;BME280;58577;52.410;13.242;2022-08-01T08:02:13;100917.22;;;20.08;81.19
70925;BME280;58577;52.410;13.242;2022-08-01T08:04:59;100924.31;;;19.96;80.45
70925;BME280;58577;52.410;13.242;2022-08-01T08:07:45;100920.09;;;19.87;80.79
70925;BME280;58577;52.410;13.242;2022-08-01T08:10:30;100921.56;;;19.89;80.64
70925;BME280;58577;52.410;13.242;2022-08-01T08:13:16;100919.28;;;19.93;79.91
70925;BME280;58577;52.410;13.242;2022-08-01T08:16:02;100914.75;;;20.20;78.59
70925;BME280;58577;52.410;13.242;2022-08-01T08:18:48;100915.84;;;20.52;77.51
70925;BME280;58577;52.410;13.242;2022-08-01T08:21:34;100932.88;;;20.81;74.90
70925;BME280;58577;52.410;13.242;2022-08-01T08:24:20;100933.56;;;21.68;70.70
70925;BME280;58577;52.410;13.242;2022-08-01T08:27:06;100939.56;;;22.35;69.16
70925;BME280;58577;52.410;13.242;2022-08-01T08:29:53;100948.13;;;22.71;67.21
70925;BME280;58577;52.410;13.242;2022-08-01T08:32:39;100942.97;;;22.24;66.60
70925;BME280;58577;52.410;13.242;2022-08-01T08:35:25;100920.00;;;22.00;68.80
70925;BME280;58577;52.410;13.242;2022-08-01T08:38:11;100918.94;;;21.36;68.82
70925;BME280;58577;52.410;13.242;2022-08-01T08:40:57;100913.75;;;21.21;70.74
70925;BME280;58577;52.410;13.242;2022-08-01T08:43:43;100921.50;;;21.17;71.10
70925;BME280;58577;52.410;13.242;2022-08-01T08:46:31;100916.91;;;21.05;71.89
70925;BME280;58577;52.410;13.242;2022-08-01T08:49:23;100927.81;;;21.05;71.75
70925;BME280;58577;52.410;13.242;2022-08-01T08:52:10;100923.38;;;21.17;71.48
70925;BME280;58577;52.410;13.242;2022-08-01T08:54:57;100923.16;;;21.18;70.82
70925;BME280;58577;52.410;13.242;2022-08-01T08:57:44;100938.91;;;21.16;69.89
70925;BME280;58577;52.410;13.242;2022-08-01T09:00:30;100944.41;;;21.10;69.58
70925;BME280;58577;52.410;13.242;2022-08-01T09:03:17;100939.56;;;20.92;70.94
70925;BME280;58577;52.410;13.242;2022-08-01T09:06:03;100943.34;;;20.77;70.33
70925;BME280;58577;52.410;13.242;2022-08-01T09:08:48;100938.75;;;20.85;71.53
70925;BME280;58577;52.410;13.242;2022-08-01T09:11:35;100947.34;;;20.75;71.68
70925;BME280;58577;52.410;13.242;2022-08-01T09:14:22;100959.72;;;20.91;70.59
70925;BME280;58577;52.410;13.242;2022-08-01T09:17:09;100953.41;;;20.97;71.07
70925;BME280;58577;52.410;13.242;2022-08-01T09:19:56;100954.06;;;21.06;71.80
70925;BME280;58577;52.410;13.242;2022-08-01T09:22:42;100971.88;;;20.95;70.26
70925;BME280;58577;52.410;13.242;2022-08-01T09:25:28;100964.13;;;20.98;71.15
70925;BME280;58577;52.410;13.242;2022-08-01T09:28:27;100968.09;;;21.16;70.11
70925;BME280;58577;52.410;13.242;2022-08-01T09:31:18;100967.44;;;21.34;69.04
70925;BME280;58577;52.410;13.242;2022-08-01T09:34:04;100972.00;;;21.73;69.04
70925;BME280;58577;52.410;13.242;2022-08-01T09:36:53;100992.25;;;22.04;66.53
70925;BME280;58577;52.410;13.242;2022-08-01T09:39:41;100991.31;;;22.24;66.29
70925;BME280;58577;52.410;13.242;2022-08-01T09:42:28;100993.84;;;22.18;66.15
70925;BME280;58577;52.410;13.242;2022-08-01T09:45:34;100989.13;;;22.01;66.74
70925;BME280;58577;52.410;13.242;2022-08-01T09:48:20;100986.59;;;21.99;67.23
70925;BME280;58577;52.410;13.242;2022-08-01T09:51:07;100985.41;;;21.82;66.91
70925;BME280;58577;52.410;13.242;2022-08-01T09:53:53;100979.56;;;21.71;68.05
70925;BME280;58577;52.410;13.242;2022-08-01T09:56:41;100987.81;;;21.45;68.76
70925;BME280;58577;52.410;13.242;2022-08-01T09:59:35;100980.25;;;21.20;69.52
70925;BME280;58577;52.410;13.242;2022-08-01T10:05:13;100997.47;;;20.87;70.78
70925;BME280;58577;52.410;13.242;2022-08-01T10:08:02;100990.75;;;21.03;71.36
70925;BME280;58577;52.410;13.242;2022-08-01T10:11:07;101000.84;;;21.02;70.45
70925;BME280;58577;52.410;13.242;2022-08-01T10:13:55;101012.59;;;21.23;69.69
70925;BME280;58577;52.410;13.242;2022-08-01T10:16:42;101003.75;;;21.48;68.98
70925;BME280;58577;52.410;13.242;2022-08-01T10:19:30;101019.69;;;21.64;67.60
70925;BME280;58577;52.410;13.242;2022-08-01T10:22:16;101006.84;;;21.85;68.08
70925;BME280;58577;52.410;13.242;2022-08-01T10:25:04;101008.97;;;21.69;68.08
70925;BME280;58577;52.410;13.242;2022-08-01T10:27:52;101008.38;;;21.54;67.82
70925;BME280;58577;52.410;13.242;2022-08-01T10:30:41;101007.97;;;21.44;69.58
70925;BME280;58577;52.410;13.242;2022-08-01T10:33:29;101008.38;;;21.40;69.52
70925;BME280;58577;52.410;13.242;2022-08-01T10:36:18;101018.03;;;21.43;68.71
70925;BME280;58577;52.410;13.242;2022-08-01T10:39:05;101009.00;;;21.49;68.48
70925;BME280;58577;52.410;13.242;2022-08-01T10:41:51;101015.09;;;21.58;68.17
70925;BME280;58577;52.410;13.242;2022-08-01T10:44:38;101019.63;;;21.91;67.81
70925;BME280;58577;52.410;13.242;2022-08-01T10:47:27;101034.53;;;21.95;65.81
70925;BME280;58577;52.410;13.242;2022-08-01T10:53:26;101036.53;;;22.19;64.91
70925;BME280;58577;52.410;13.242;2022-08-01T10:56:12;101048.31;;;22.65;63.96
70925;BME280;58577;52.410;13.242;2022-08-01T10:59:03;101067.31;;;23.24;61.74
70925;BME280;58577;52.410;13.242;2022-08-01T11:01:58;101047.66;;;23.52;62.37
70925;BME280;58577;52.410;13.242;2022-08-01T11:04:55;101039.00;;;23.73;62.42
70925;BME280;58577;52.410;13.242;2022-08-01T11:07:48;101060.44;;;23.83;61.40
70925;BME280;58577;52.410;13.242;2022-08-01T11:10:42;101085.13;;;23.77;59.26
70925;BME280;58577;52.410;13.242;2022-08-01T11:14:04;101055.84;;;23.77;59.90
70925;BME280;58577;52.410;13.242;2022-08-01T11:16:52;101066.59;;;23.79;58.66
70925;BME280;58577;52.410;13.242;2022-08-01T11:20:07;101049.50;;;23.58;59.51
70925;BME280;58577;52.410;13.242;2022-08-01T11:28:39;101043.50;;;22.92;61.00
70925;BME280;58577;52.410;13.242;2022-08-01T11:31:26;101033.97;;;23.02;61.65
70925;BME280;58577;52.410;13.242;2022-08-01T11:34:13;101053.53;;;23.05;60.62
70925;BME280;58577;52.410;13.242;2022-08-01T11:37:26;101035.69;;;23.28;60.67
70925;BME280;58577;52.410;13.242;2022-08-01T11:45:59;101044.28;;;23.31;60.67
70925;BME280;58577;52.410;13.242;2022-08-01T11:57:48;101043.81;;;23.34;62.02
70925;BME280;58577;52.410;13.242;2022-08-01T12:00:34;101049.50;;;23.58;61.09
70925;BME280;58577;52.410;13.242;2022-08-01T12:03:24;101074.91;;;23.90;59.42
70925;BME280;58577;52.410;13.242;2022-08-01T12:06:12;101063.63;;;24.17;58.97
70925;BME280;58577;52.410;13.242;2022-08-01T12:09:15;101063.91;;;24.27;58.30
70925;BME280;58577;52.410;13.242;2022-08-01T12:12:01;101055.41;;;24.17;58.85
70925;BME280;58577;52.410;13.242;2022-08-01T12:14:53;101046.34;;;23.98;58.90
70925;BME280;58577;52.410;13.242;2022-08-01T12:17:48;101041.75;;;23.55;59.59
70925;BME280;58577;52.410;13.242;2022-08-01T12:20:35;101040.38;;;23.21;60.89
70925;BME280;58577;52.410;13.242;2022-08-01T12:23:22;101044.84;;;22.83;61.89
70925;BME280;58577;52.410;13.242;2022-08-01T12:26:07;101036.06;;;22.74;61.96
70925;BME280;58577;52.410;13.242;2022-08-01T12:28:53;101044.06;;;22.69;62.30
70925;BME280;58577;52.410;13.242;2022-08-01T12:31:39;101041.91;;;22.78;61.58
70925;BME280;58577;52.410;13.242;2022-08-01T12:34:26;101055.34;;;23.18;60.77
70925;BME280;58577;52.410;13.242;2022-08-01T12:37:16;101055.25;;;23.50;60.97
70925;BME280;58577;52.410;13.242;2022-08-01T12:40:30;101052.31;;;23.51;60.90
70925;BME280;58577;52.410;13.242;2022-08-01T12:43:22;101065.38;;;23.49;59.42
70925;BME280;58577;52.410;13.242;2022-08-01T12:46:11;101073.31;;;23.58;58.27
70925;BME280;58577;52.410;13.242;2022-08-01T12:49:01;101073.16;;;24.14;57.73
70925;BME280;58577;52.410;13.242;2022-08-01T12:51:48;101076.81;;;24.76;56.49
70925;BME280;58577;52.410;13.242;2022-08-01T12:55:03;101061.50;;;24.68;55.94
70925;BME280;58577;52.410;13.242;2022-08-01T12:58:04;101068.69;;;24.69;55.49
70925;BME280;58577;52.410;13.242;2022-08-01T13:01:03;101065.69;;;24.22;55.19
70925;BME280;58577;52.410;13.242;2022-08-01T13:04:03;101061.78;;;24.29;56.38
70925;BME280;58577;52.410;13.242;2022-08-01T13:06:55;101063.31;;;24.25;55.66
70925;BME280;58577;52.410;13.242;2022-08-01T13:09:51;101051.25;;;24.45;56.57
70925;BME280;58577;52.410;13.242;2022-08-01T13:12:39;101067.44;;;23.98;54.95
70925;BME280;58577;52.410;13.242;2022-08-01T13:15:30;101061.72;;;23.81;56.72
70925;BME280;58577;52.410;13.242;2022-08-01T13:18:31;101055.13;;;23.63;57.27
70925;BME280;58577;52.410;13.242;2022-08-01T13:21:20;101062.91;;;23.66;56.89
70925;BME280;58577;52.410;13.242;2022-08-01T13:24:12;101048.19;;;23.86;57.35
70925;BME280;58577;52.410;13.242;2022-08-01T13:27:01;101073.84;;;24.28;55.68
70925;BME280;58577;52.410;13.242;2022-08-01T13:29:48;101081.88;;;24.60;54.07
70925;BME280;58577;52.410;13.242;2022-08-01T13:32:38;101075.00;;;24.69;53.66
70925;BME280;58577;52.410;13.242;2022-08-01T13:35:24;101088.94;;;25.28;52.53
70925;BME280;58577;52.410;13.242;2022-08-01T13:38:10;101086.03;;;25.82;53.21
70925;BME280;58577;52.410;13.242;2022-08-01T13:40:59;101084.41;;;25.69;50.76
70925;BME280;58577;52.410;13.242;2022-08-01T13:43:45;101091.94;;;26.79;48.87
70925;BME280;58577;52.410;13.242;2022-08-01T13:46:31;101096.59;;;27.07;46.88
70925;BME280;58577;52.410;13.242;2022-08-01T13:49:17;101100.81;;;27.60;45.23
70925;BME280;58577;52.410;13.242;2022-08-01T13:52:03;101083.13;;;26.94;46.46
70925;BME280;58577;52.410;13.242;2022-08-01T13:54:51;101074.06;;;26.24;47.87
70925;BME280;58577;52.410;13.242;2022-08-01T13:57:37;101063.81;;;25.84;48.90
70925;BME280;58577;52.410;13.242;2022-08-01T14:00:23;101071.84;;;25.97;49.56
70925;BME280;58577;52.410;13.242;2022-08-01T14:03:09;101076.59;;;26.02;49.06
70925;BME280;58577;52.410;13.242;2022-08-01T14:05:56;101064.22;;;25.40;50.40
70925;BME280;58577;52.410;13.242;2022-08-01T14:08:43;101071.72;;;25.33;50.23
70925;BME280;58577;52.410;13.242;2022-08-01T14:11:29;101067.13;;;25.15;50.72
70925;BME280;58577;52.410;13.242;2022-08-01T14:14:15;101078.41;;;25.25;51.04
70925;BME280;58577;52.410;13.242;2022-08-01T14:17:02;101073.59;;;25.21;51.09
70925;BME280;58577;52.410;13.242;2022-08-01T14:19:48;101079.97;;;25.45;51.22
70925;BME280;58577;52.410;13.242;2022-08-01T14:22:34;101096.09;;;25.65;49.78
70925;BME280;58577;52.410;13.242;2022-08-01T14:25:20;101084.25;;;25.88;50.32
70925;BME280;58577;52.410;13.242;2022-08-01T14:28:06;101098.72;;;25.72;49.72
70925;BME280;58577;52.410;13.242;2022-08-01T14:30:52;101092.50;;;25.64;50.34
70925;BME280;58577;52.410;13.242;2022-08-01T14:33:37;101105.66;;;26.09;49.60
70925;BME280;58577;52.410;13.242;2022-08-01T14:36:23;101093.59;;;25.99;50.55
70925;BME280;58577;52.410;13.242;2022-08-01T14:39:09;101112.44;;;26.19;48.44
70925;BME280;58577;52.410;13.242;2022-08-01T14:41:55;101107.00;;;25.95;49.20
70925;BME280;58577;52.410;13.242;2022-08-01T14:44:41;101107.69;;;25.79;49.63
70925;BME280;58577;52.410;13.242;2022-08-01T14:47:27;101096.09;;;25.65;49.88
70925;BME280;58577;52.410;13.242;2022-08-01T14:50:15;101094.28;;;25.23;49.76
70925;BME280;58577;52.410;13.242;2022-08-01T14:53:01;101093.28;;;25.18;51.03
70925;BME280;58577;52.410;13.242;2022-08-01T14:55:47;101098.00;;;24.99;51.44
70925;BME280;58577;52.410;13.242;2022-08-01T14:58:33;101102.09;;;25.08;51.02
70925;BME280;58577;52.410;13.242;2022-08-01T15:01:19;101124.88;;;25.08;49.91
70925;BME280;58577;52.410;13.242;2022-08-01T15:04:05;101101.91;;;24.91;51.25